Time;durP1;ratioP1;P1;durP2;ratioP2;P2;SDS_P1;SDS_P2;PMS_P1;PMS_P2;Temp;Humidity;BMP_temperature;BMP_pressure;BME280_temperature;BME280_humidity;BME280_pressure;Samples;Min_cycle;Max_cycle;Signal;HPM_P1;HPM_P2
2022/12/26 00:01:18;;;;;;;6.30;4.10;;;;;;;;;;5055862;28;20116;-63
2022/12/26 00:03:43;;;;;;;6.20;4.20;;;;;;;;;;5055990;28;20480;-62
2022/12/26 00:06:18;;;;;;;5.82;3.97;;;;;;;;;;5055937;28;20113;-62
2022/12/26 00:08:45;;;;;;;6.28;3.72;;;;;;;;;;5056152;28;20025;-62
2022/12/26 00:11:12;;;;;;;4.22;3.83;;;;;;;;;;5055702;28;20036;-62
2022/12/26 00:13:41;;;;;;;4.82;3.63;;;;;;;;;;5055780;28;20025;-62
2022/12/26 00:16:11;;;;;;;5.32;3.92;;;;;;;;;;5052994;28;20114;-62
2022/12/26 00:18:37;;;;;;;6.75;3.90;;;;;;;;;;5054237;28;20369;-62
2022/12/26 00:21:04;;;;;;;6.20;3.80;;;;;;;;;;5054517;28;20021;-62
2022/12/26 00:23:31;;;;;;;5.88;3.95;;;;;;;;;;5051763;28;20026;-63
2022/12/26 00:26:05;;;;;;;6.13;4.00;;;;;;;;;;5052363;28;20025;-63
2022/12/26 00:28:30;;;;;;;5.68;3.95;;;;;;;;;;5051083;28;20056;-64
2022/12/26 00:30:56;;;;;;;5.10;4.05;;;;;;;;;;5053304;28;20480;-62
2022/12/26 00:33:21;;;;;;;4.97;3.72;;;;;;;;;;5052907;28;20025;-63
2022/12/26 00:35:47;;;;;;;5.53;3.80;;;;;;;;;;5051946;28;20545;-63
2022/12/26 00:38:13;;;;;;;5.78;3.95;;;;;;;;;;5052856;28;20037;-62
2022/12/26 00:40:43;;;;;;;6.03;3.90;;;;;;;;;;5051520;28;20028;-62
2022/12/26 00:43:09;;;;;;;4.95;3.83;;;;;;;;;;5051979;28;20020;-62
2022/12/26 00:45:35;;;;;;;5.80;3.92;;;;;;;;;;5051378;28;20047;-63
2022/12/26 00:48:00;;;;;;;6.03;4.13;;;;;;;;;;5053268;28;20017;-62
2022/12/26 00:50:26;;;;;;;4.93;3.75;;;;;;;;;;5053207;28;20050;-63
2022/12/26 00:52:52;;;;;;;6.15;4.07;;;;;;;;;;5054377;28;20036;-63
2022/12/26 00:55:21;;;;;;;5.25;3.90;;;;;;;;;;5053718;28;20031;-62
2022/12/26 00:57:46;;;;;;;5.95;4.20;;;;;;;;;;5054897;28;20049;-64
2022/12/26 01:00:13;;;;;;;4.78;3.85;;;;;;;;;;5054362;28;20376;-62
2022/12/26 01:02:38;;;;;;;5.22;4.03;;;;;;;;;;5054754;28;20025;-62
2022/12/26 01:05:08;;;;;;;8.23;4.13;;;;;;;;;;5055135;28;20036;-62
2022/12/26 01:07:35;;;;;;;;;;;;;;;;;;5054831;28;20025;-62
2022/12/26 01:10:02;;;;;;;4.75;3.45;;;;;;;;;;5054711;28;19920;-62
2022/12/26 01:12:27;;;;;;;4.55;3.60;;;;;;;;;;5055031;28;20110;-62
2022/12/26 01:14:57;;;;;;;4.43;3.85;;;;;;;;;;5054626;28;20492;-62
2022/12/26 01:17:24;;;;;;;5.25;3.83;;;;;;;;;;5054740;28;20036;-63
2022/12/26 01:19:49;;;;;;;6.78;4.30;;;;;;;;;;5054811;28;20384;-62
2022/12/26 01:22:15;;;;;;;6.00;3.70;;;;;;;;;;5054770;28;20025;-62
2022/12/26 01:24:43;;;;;;;4.85;3.53;;;;;;;;;;5054477;28;20386;-62
2022/12/26 01:27:09;;;;;;;5.78;4.28;;;;;;;;;;5054697;28;20041;-62
2022/12/26 01:29:34;;;;;;;6.30;4.10;;;;;;;;;;5054648;28;20044;-63
2022/12/26 01:32:00;;;;;;;6.28;4.10;;;;;;;;;;5054429;28;20477;-62
2022/12/26 01:34:28;;;;;;;4.90;3.95;;;;;;;;;;5054578;28;20071;-63
2022/12/26 01:36:54;;;;;;;5.65;4.07;;;;;;;;;;5054395;28;20104;-63
2022/12/26 01:39:20;;;;;;;7.18;3.78;;;;;;;;;;5054262;28;20056;-62
2022/12/26 01:41:46;;;;;;;5.25;4.00;;;;;;;;;;5054178;28;20244;-62
2022/12/26 01:44:49;;;;;;;5.25;3.90;;;;;;;;;;5054148;28;20495;-63
2022/12/26 01:47:15;;;;;;;7.43;4.70;;;;;;;;;;5054104;28;20033;-63
2022/12/26 01:49:44;;;;;;;6.38;4.20;;;;;;;;;;5054070;28;20017;-63
2022/12/26 01:52:19;;;;;;;4.75;4.10;;;;;;;;;;5054007;28;20021;-63
2022/12/26 01:54:49;;;;;;;6.68;4.15;;;;;;;;;;5054048;28;20021;-63
2022/12/26 01:57:39;;;;;;;5.63;3.90;;;;;;;;;;5052601;28;20378;-62
2022/12/26 02:00:05;;;;;;;5.10;3.77;;;;;;;;;;5053843;28;20033;-63
2022/12/26 02:05:32;;;;;;;4.63;3.58;;;;;;;;;;5053647;28;20769;-62
2022/12/26 02:05:32;;;;;;;6.15;3.92;;;;;;;;;;5053701;28;20036;-62
2022/12/26 02:08:00;;;;;;;5.97;4.05;;;;;;;;;;5053929;28;20099;-63
2022/12/26 02:10:27;;;;;;;5.75;4.20;;;;;;;;;;5053639;28;20021;-63
2022/12/26 02:12:53;;;;;;;5.82;3.90;;;;;;;;;;5052736;28;20090;-61
2022/12/26 02:15:19;;;;;;;4.68;3.83;;;;;;;;;;5053457;28;20465;-62
2022/12/26 02:17:44;;;;;;;4.47;3.53;;;;;;;;;;5053650;28;20566;-62
2022/12/26 02:20:19;;;;;;;5.70;4.05;;;;;;;;;;5053442;28;20388;-62
2022/12/26 02:23:08;;;;;;;7.93;4.07;;;;;;;;;;5053398;28;20025;-62
2022/12/26 02:25:58;;;;;;;8.52;4.55;;;;;;;;;;5053331;28;20025;-62
2022/12/26 02:28:45;;;;;;;6.50;4.20;;;;;;;;;;5053273;28;20520;-62
2022/12/26 02:31:20;;;;;;;5.45;3.70;;;;;;;;;;5051949;28;20087;-62
2022/12/26 02:33:57;;;;;;;6.82;4.68;;;;;;;;;;5053269;28;20074;-62
2022/12/26 02:36:42;;;;;;;6.97;4.43;;;;;;;;;;5053460;28;20112;-63
2022/12/26 02:39:25;;;;;;;4.38;3.72;;;;;;;;;;5053072;28;20025;-63
2022/12/26 02:42:11;;;;;;;5.00;4.07;;;;;;;;;;5052988;28;20388;-62
2022/12/26 02:47:52;;;;;;;4.80;3.80;;;;;;;;;;5053298;28;20052;-62
2022/12/26 03:14:47;;;;;;;5.88;4.32;;;;;;;;;;5052855;28;20075;-63
2022/12/26 03:17:27;;;;;;;4.53;3.88;;;;;;;;;;5052748;28;20029;-62
2022/12/26 03:20:00;;;;;;;5.68;4.50;;;;;;;;;;5052482;28;20091;-62
2022/12/26 03:22:36;;;;;;;5.90;4.60;;;;;;;;;;5052212;28;20039;-62
2022/12/26 03:27:58;;;;;;;5.88;4.47;;;;;;;;;;5052722;28;20063;-62
2022/12/26 03:34:16;;;;;;;5.40;4.00;;;;;;;;;;5052414;28;20075;-62
2022/12/26 03:35:54;;;;;;;5.65;4.47;;;;;;;;;;5052288;28;20029;-63
2022/12/26 03:38:29;;;;;;;7.22;4.70;;;;;;;;;;5052294;28;20473;-63
2022/12/26 04:19:23;;;;;;;6.25;4.78;;;;;;;;;;5051909;28;20040;-62
2022/12/26 04:45:04;;;;;;;7.00;5.05;;;;;;;;;;5055652;28;20159;-62
2022/12/26 04:47:31;;;;;;;5.40;4.20;;;;;;;;;;5055134;28;20053;-63
2022/12/26 04:50:11;;;;;;;7.40;5.20;;;;;;;;;;5055239;28;20420;-62
2022/12/26 04:52:59;;;;;;;6.80;4.93;;;;;;;;;;5055097;28;20103;-62
2022/12/26 04:55:32;;;;;;;5.95;4.65;;;;;;;;;;5055163;28;20536;-63
2022/12/26 04:57:59;;;;;;;7.10;5.15;;;;;;;;;;5054830;28;20136;-63
2022/12/26 05:00:26;;;;;;;6.22;4.70;;;;;;;;;;5055031;28;20384;-63
2022/12/26 05:11:22;;;;;;;8.32;5.35;;;;;;;;;;5055067;28;20431;-63
2022/12/26 10:20:44;;;;;;;5.63;4.68;;;;;;;;;;5201557;22;1425216;-68
2022/12/26 10:23:32;;;;;;;6.60;5.07;;;;;;;;;;5015164;28;20069;-61
2022/12/26 10:26:21;;;;;;;6.50;5.03;;;;;;;;;;5015492;28;20061;-61
2022/12/26 10:29:13;;;;;;;6.80;5.50;;;;;;;;;;5009132;28;20049;-61
2022/12/26 10:32:03;;;;;;;6.70;5.15;;;;;;;;;;5026863;28;20036;-63
2022/12/26 10:34:38;;;;;;;6.57;5.07;;;;;;;;;;5014093;28;20034;-68
2022/12/26 10:37:24;;;;;;;8.80;5.43;;;;;;;;;;5005782;28;20041;-63
2022/12/26 10:40:32;;;;;;;6.85;5.15;;;;;;;;;;4993959;28;20044;-62
2022/12/26 10:43:21;;;;;;;7.35;5.18;;;;;;;;;;4993643;28;20393;-62
2022/12/26 10:46:16;;;;;;;6.05;4.90;;;;;;;;;;5002434;28;20037;-62
2022/12/26 10:48:42;;;;;;;6.60;5.07;;;;;;;;;;5015380;28;20030;-61
2022/12/26 10:51:08;;;;;;;7.03;4.85;;;;;;;;;;5015246;28;20065;-61
2022/12/26 10:53:40;;;;;;;7.82;5.18;;;;;;;;;;5011400;28;20038;-63
2022/12/26 10:56:07;;;;;;;5.85;4.68;;;;;;;;;;4996744;28;20077;-62
2022/12/26 10:58:35;;;;;;;6.80;5.25;;;;;;;;;;5006528;28;20023;-71
2022/12/26 11:01:28;;;;;;;11.07;5.47;;;;;;;;;;4995839;28;20031;-60
2022/12/26 11:04:02;;;;;;;7.35;5.70;;;;;;;;;;4999533;28;20048;-64
2022/12/26 11:06:36;;;;;;;10.07;5.47;;;;;;;;;;4995429;28;20056;-63
2022/12/26 11:09:03;;;;;;;10.18;5.93;;;;;;;;;;4995375;28;20042;-60
2022/12/26 11:11:46;;;;;;;10.15;6.47;;;;;;;;;;4995523;28;20406;-64
2022/12/26 11:14:27;;;;;;;16.52;6.32;;;;;;;;;;5011343;28;20113;-61
2022/12/26 11:16:54;;;;;;;13.85;6.80;;;;;;;;;;4996111;28;20026;-62
2022/12/26 11:19:26;;;;;;;8.65;6.45;;;;;;;;;;5014073;28;20057;-67
2022/12/26 11:21:51;;;;;;;8.20;6.47;;;;;;;;;;5014773;28;20085;-62
2022/12/26 11:24:19;;;;;;;12.10;6.75;;;;;;;;;;5014713;28;20112;-63
2022/12/26 11:26:44;;;;;;;9.60;6.45;;;;;;;;;;4997072;28;20065;-69
2022/12/26 11:29:10;;;;;;;10.00;6.75;;;;;;;;;;5014460;28;20072;-62
2022/12/26 11:31:37;;;;;;;8.20;5.55;;;;;;;;;;5013510;28;20114;-65
2022/12/26 11:34:08;;;;;;;10.73;6.72;;;;;;;;;;5014515;28;20029;-62
2022/12/26 11:36:36;;;;;;;9.30;6.32;;;;;;;;;;5014374;28;20628;-63
2022/12/26 11:39:24;;;;;;;7.82;5.90;;;;;;;;;;5014735;28;20052;-62
2022/12/26 11:41:50;;;;;;;9.13;5.97;;;;;;;;;;5014693;28;20488;-62
2022/12/26 11:44:21;;;;;;;8.63;5.38;;;;;;;;;;5013839;28;20033;-62
2022/12/26 11:47:07;;;;;;;7.90;6.00;;;;;;;;;;5014418;28;20300;-62
2022/12/26 11:49:51;;;;;;;6.97;4.95;;;;;;;;;;5013356;28;20537;-61
2022/12/26 11:52:51;;;;;;;9.25;6.15;;;;;;;;;;5014219;28;20026;-67
2022/12/26 11:55:26;;;;;;;7.30;5.13;;;;;;;;;;5014208;28;20026;-62
2022/12/26 11:57:59;;;;;;;7.63;5.70;;;;;;;;;;5014028;28;20026;-63
2022/12/26 12:00:25;;;;;;;9.65;5.18;;;;;;;;;;5013959;28;20037;-61
2022/12/26 12:02:51;;;;;;;7.50;5.35;;;;;;;;;;5013991;28;20458;-69
2022/12/26 12:05:46;;;;;;;8.48;5.88;;;;;;;;;;5013980;28;20022;-70
2022/12/26 12:08:36;;;;;;;7.47;4.93;;;;;;;;;;5011650;28;20095;-61
2022/12/26 12:11:20;;;;;;;8.27;5.03;;;;;;;;;;5013931;28;20026;-62
2022/12/26 12:13:57;;;;;;;6.78;5.10;;;;;;;;;;5014433;28;20116;-67
2022/12/26 12:16:44;;;;;;;6.47;5.35;;;;;;;;;;5013758;28;20030;-62
2022/12/26 12:19:47;;;;;;;7.95;5.65;;;;;;;;;;5013785;28;20367;-62
2022/12/26 12:22:35;;;;;;;8.13;5.43;;;;;;;;;;4974412;28;20431;-62
2022/12/26 12:25:06;;;;;;;6.32;4.97;;;;;;;;;;4974563;28;20050;-68
2022/12/26 12:28:13;;;;;;;8.00;5.53;;;;;;;;;;4974736;28;20031;-62
2022/12/26 12:31:08;;;;;;;7.22;5.10;;;;;;;;;;4974045;28;20039;-69
2022/12/26 12:33:48;;;;;;;6.90;4.90;;;;;;;;;;4974438;28;20031;-62
2022/12/26 12:36:17;;;;;;;;;;;;;;;;;;4974896;28;20034;-62
2022/12/26 12:39:15;;;;;;;6.85;5.10;;;;;;;;;;4974400;28;19914;-62
2022/12/26 12:42:09;;;;;;;6.70;5.25;;;;;;;;;;4974646;28;20034;-62
2022/12/26 12:45:15;;;;;;;6.57;4.80;;;;;;;;;;4974294;28;20109;-62
2022/12/26 12:48:15;;;;;;;6.95;4.93;;;;;;;;;;4968665;28;20053;-62
2022/12/26 12:51:23;;;;;;;5.85;4.57;;;;;;;;;;4974164;28;20537;-62
2022/12/26 12:54:29;;;;;;;6.50;5.32;;;;;;;;;;4973957;28;20042;-71
2022/12/26 12:57:06;;;;;;;10.13;4.72;;;;;;;;;;4974144;28;20031;-62
2022/12/26 12:59:41;;;;;;;7.65;5.40;;;;;;;;;;4974064;28;20086;-63
2022/12/26 13:02:20;;;;;;;7.05;5.00;;;;;;;;;;4974051;28;20081;-62
2022/12/26 13:04:54;;;;;;;7.38;4.70;;;;;;;;;;4974230;28;20070;-62
2022/12/26 13:07:31;;;;;;;8.90;5.72;;;;;;;;;;4973930;28;20466;-62
2022/12/26 13:10:01;;;;;;;6.40;5.20;;;;;;;;;;4973882;28;20030;-70
2022/12/26 13:12:33;;;;;;;6.80;4.57;;;;;;;;;;4973901;28;20031;-71
2022/12/26 13:15:40;;;;;;;8.02;4.65;;;;;;;;;;4973840;28;20128;-62
2022/12/26 13:18:22;;;;;;;7.28;5.30;;;;;;;;;;4973242;28;20082;-63
2022/12/26 13:20:56;;;;;;;6.95;4.80;;;;;;;;;;4998681;28;20109;-62
2022/12/26 13:26:50;;;;;;;5.10;4.60;;;;;;;;;;5012860;28;20041;-62
2022/12/26 13:29:28;;;;;;;6.45;4.70;;;;;;;;;;5012940;28;20030;-63
2022/12/26 13:31:54;;;;;;;9.52;5.00;;;;;;;;;;5012705;28;20030;-63
2022/12/26 13:34:20;;;;;;;6.40;4.78;;;;;;;;;;5012597;28;20089;-63
2022/12/26 13:36:51;;;;;;;6.00;5.07;;;;;;;;;;5012615;28;20108;-63
2022/12/26 13:39:25;;;;;;;6.68;5.18;;;;;;;;;;5012574;28;20022;-62
2022/12/26 13:44:43;;;;;;;10.20;5.07;;;;;;;;;;5012604;28;20049;-62
2022/12/26 13:47:33;;;;;;;6.05;4.50;;;;;;;;;;5012337;28;20034;-63
2022/12/26 13:50:36;;;;;;;5.78;4.82;;;;;;;;;;5012522;28;20080;-63
2022/12/26 13:53:03;;;;;;;5.60;4.63;;;;;;;;;;5012377;28;20045;-63
2022/12/26 13:55:40;;;;;;;7.18;5.43;;;;;;;;;;5012449;28;20033;-63
2022/12/26 13:58:19;;;;;;;5.47;4.53;;;;;;;;;;5012337;28;20105;-63
2022/12/26 14:00:47;;;;;;;7.57;4.75;;;;;;;;;;5012455;28;20037;-63
2022/12/26 14:03:45;;;;;;;8.45;4.93;;;;;;;;;;5012379;28;20117;-63
2022/12/26 14:06:34;;;;;;;4.80;4.30;;;;;;;;;;4993680;28;20038;-71
2022/12/26 14:09:16;;;;;;;6.32;4.72;;;;;;;;;;5012429;28;20030;-62
2022/12/26 14:11:58;;;;;;;8.40;4.95;;;;;;;;;;5012628;28;20026;-62
2022/12/26 14:14:32;;;;;;;10.00;4.70;;;;;;;;;;5015673;28;20504;-62
2022/12/26 14:17:14;;;;;;;6.55;4.57;;;;;;;;;;5016270;28;20034;-62
2022/12/26 14:20:05;;;;;;;6.10;4.70;;;;;;;;;;5015667;28;20046;-64
2022/12/26 14:22:39;;;;;;;5.20;4.32;;;;;;;;;;4971793;28;20485;-63
2022/12/26 14:25:15;;;;;;;5.15;4.40;;;;;;;;;;5015800;28;20021;-70
2022/12/26 14:27:47;;;;;;;8.27;5.07;;;;;;;;;;5015697;28;20032;-63
2022/12/26 14:30:31;;;;;;;7.18;5.25;;;;;;;;;;5015706;28;20025;-63
2022/12/26 14:33:17;;;;;;;5.65;4.60;;;;;;;;;;5015921;28;20037;-63
2022/12/26 14:35:52;;;;;;;7.28;4.65;;;;;;;;;;5015076;28;20045;-62
2022/12/26 14:38:20;;;;;;;6.10;4.70;;;;;;;;;;5015803;28;20117;-65
2022/12/26 14:44:13;;;;;;;5.20;4.65;;;;;;;;;;4987258;28;20034;-63
2022/12/26 14:46:39;;;;;;;5.88;5.07;;;;;;;;;;5015346;28;20033;-63
2022/12/26 14:49:32;;;;;;;5.72;4.72;;;;;;;;;;5015320;28;20101;-71
2022/12/26 14:52:22;;;;;;;6.13;5.00;;;;;;;;;;5015269;28;20029;-63
2022/12/26 14:54:48;;;;;;;;;;;;;;;;;;5015874;28;20029;-62
2022/12/26 14:57:35;;;;;;;6.07;4.97;;;;;;;;;;5015255;28;20369;-62
2022/12/26 15:00:39;;;;;;;5.82;4.32;;;;;;;;;;5015192;28;20481;-63
2022/12/26 15:03:27;;;;;;;5.07;4.57;;;;;;;;;;5011940;28;20045;-62
2022/12/26 15:06:15;;;;;;;6.15;4.20;;;;;;;;;;5014935;28;20072;-62
2022/12/26 15:09:13;;;;;;;5.80;4.40;;;;;;;;;;5015063;28;20026;-62
2022/12/26 15:11:53;;;;;;;5.05;4.40;;;;;;;;;;5005809;28;20069;-62
2022/12/26 15:14:56;;;;;;;5.75;4.70;;;;;;;;;;5015167;28;20081;-62
2022/12/26 15:17:46;;;;;;;5.05;4.55;;;;;;;;;;5014896;28;20021;-62
2022/12/26 15:20:23;;;;;;;5.00;4.32;;;;;;;;;;5014761;28;20508;-62
2022/12/26 15:23:09;;;;;;;7.35;4.78;;;;;;;;;;5014994;28;20076;-62
2022/12/26 15:25:58;;;;;;;5.13;4.47;;;;;;;;;;5014395;28;20474;-62
2022/12/26 15:28:36;;;;;;;6.20;4.80;;;;;;;;;;5014816;28;20120;-62
2022/12/26 15:31:23;;;;;;;6.05;4.85;;;;;;;;;;5014878;28;20032;-62
2022/12/26 15:34:01;;;;;;;4.95;4.30;;;;;;;;;;5014541;28;20036;-62
2022/12/26 15:36:47;;;;;;;5.68;4.40;;;;;;;;;;5014453;28;20025;-62
2022/12/26 15:39:28;;;;;;;5.82;4.53;;;;;;;;;;5014419;28;20034;-63
2022/12/26 15:42:15;;;;;;;5.80;4.80;;;;;;;;;;5014555;28;20034;-62
2022/12/26 15:45:08;;;;;;;5.25;4.35;;;;;;;;;;5014276;28;20489;-62
2022/12/26 15:47:46;;;;;;;7.18;4.53;;;;;;;;;;5014169;28;20132;-62
2022/12/26 15:50:15;;;;;;;7.47;4.70;;;;;;;;;;5014301;28;20026;-62
2022/12/26 15:53:10;;;;;;;7.30;4.88;;;;;;;;;;5014394;28;20038;-68
2022/12/26 15:56:20;;;;;;;6.03;4.35;;;;;;;;;;5014410;28;20026;-62
2022/12/26 15:58:55;;;;;;;;;;;;;;;;;;5014710;28;20495;-62
2022/12/26 16:01:43;;;;;;;5.43;4.25;;;;;;;;;;5014009;28;19913;-63
2022/12/26 16:04:21;;;;;;;5.53;4.45;;;;;;;;;;5013886;28;20037;-62
2022/12/26 16:07:28;;;;;;;6.05;4.45;;;;;;;;;;5013888;28;20034;-63
2022/12/26 16:09:55;;;;;;;6.85;4.53;;;;;;;;;;4915124;29;20039;-62
2022/12/26 16:12:24;;;;;;;5.13;4.63;;;;;;;;;;4998495;28;20421;-62
2022/12/26 16:15:00;;;;;;;6.68;4.82;;;;;;;;;;5014034;28;20419;-62
2022/12/26 16:17:26;;;;;;;5.35;4.82;;;;;;;;;;5013660;28;20481;-62
2022/12/26 16:19:53;;;;;;;6.65;4.47;;;;;;;;;;5013535;28;20045;-63
2022/12/26 16:22:42;;;;;;;5.00;4.47;;;;;;;;;;5013861;28;20037;-62
2022/12/26 16:25:10;;;;;;;6.20;4.50;;;;;;;;;;5013625;28;20520;-63
2022/12/26 16:27:37;;;;;;;4.82;4.32;;;;;;;;;;5013628;28;20116;-62
2022/12/26 16:30:06;;;;;;;7.60;4.80;;;;;;;;;;5013456;28;20420;-62
2022/12/26 16:32:40;;;;;;;6.35;5.22;;;;;;;;;;5014024;28;20424;-63
2022/12/26 16:35:15;;;;;;;5.10;4.45;;;;;;;;;;5012993;28;20551;-63
2022/12/26 16:37:41;;;;;;;6.97;4.53;;;;;;;;;;5013402;28;20384;-63
2022/12/26 16:40:18;;;;;;;5.30;4.53;;;;;;;;;;5013323;28;20029;-63
2022/12/26 16:43:16;;;;;;;5.90;4.97;;;;;;;;;;5013544;28;20488;-62
2022/12/26 16:45:44;;;;;;;6.43;4.88;;;;;;;;;;5013197;28;20029;-62
2022/12/26 16:48:13;;;;;;;6.25;4.88;;;;;;;;;;5013129;28;20355;-63
2022/12/26 16:51:31;;;;;;;6.80;4.57;;;;;;;;;;5013019;28;20489;-63
2022/12/26 16:54:15;;;;;;;6.05;4.80;;;;;;;;;;4934158;28;20049;-62
2022/12/26 16:56:41;;;;;;;4.85;4.35;;;;;;;;;;5012969;28;20516;-62
2022/12/26 16:59:17;;;;;;;5.25;4.45;;;;;;;;;;5013087;28;20120;-63
2022/12/26 17:01:53;;;;;;;5.10;4.47;;;;;;;;;;5013029;28;20397;-62
2022/12/26 17:04:22;;;;;;;6.90;4.95;;;;;;;;;;5012932;28;20030;-64
2022/12/26 17:07:02;;;;;;;7.90;6.10;;;;;;;;;;5012811;28;20033;-63
2022/12/26 17:09:39;;;;;;;15.07;6.97;;;;;;;;;;5012934;28;20071;-64
2022/12/26 17:12:15;;;;;;;8.27;6.70;;;;;;;;;;5012767;28;20569;-65
2022/12/26 17:14:45;;;;;;;11.35;7.60;;;;;;;;;;5012883;28;20064;-63
2022/12/26 17:17:33;;;;;;;10.75;8.18;;;;;;;;;;5008776;28;20893;-66
2022/12/26 17:20:21;;;;;;;11.35;7.70;;;;;;;;;;5004194;28;20050;-65
2022/12/26 17:22:53;;;;;;;12.23;7.45;;;;;;;;;;5000927;28;20035;-63
2022/12/26 17:25:25;;;;;;;10.65;6.70;;;;;;;;;;4993397;28;20022;-62
2022/12/26 17:28:13;;;;;;;11.45;6.97;;;;;;;;;;4993100;28;20045;-62
2022/12/26 17:30:44;;;;;;;11.93;6.88;;;;;;;;;;4995592;28;20507;-64
2022/12/26 17:33:17;;;;;;;13.18;6.68;;;;;;;;;;5003464;28;20017;-61
2022/12/26 17:35:48;;;;;;;13.95;7.00;;;;;;;;;;5009240;28;20033;-63
2022/12/26 17:38:19;;;;;;;8.27;5.97;;;;;;;;;;5012663;28;20033;-63
2022/12/26 17:40:46;;;;;;;8.93;6.80;;;;;;;;;;5012453;28;20030;-63
2022/12/26 17:43:12;;;;;;;8.90;6.82;;;;;;;;;;5012742;28;20053;-63
2022/12/26 17:45:39;;;;;;;12.55;7.70;;;;;;;;;;5012485;28;20456;-62
2022/12/26 17:48:05;;;;;;;15.23;6.97;;;;;;;;;;5014187;28;20404;-62
2022/12/26 17:50:36;;;;;;;8.43;6.70;;;;;;;;;;5011657;28;20100;-63
2022/12/26 17:53:22;;;;;;;9.43;6.72;;;;;;;;;;5007025;28;20484;-66
2022/12/26 17:55:49;;;;;;;12.93;6.97;;;;;;;;;;4998950;28;20042;-63
2022/12/26 17:58:15;;;;;;;10.43;6.68;;;;;;;;;;5014607;28;20026;-66
2022/12/26 18:00:42;;;;;;;9.93;6.70;;;;;;;;;;5016306;28;20022;-62
2022/12/26 18:03:08;;;;;;;10.02;6.90;;;;;;;;;;5015971;28;20477;-63
2022/12/26 18:05:35;;;;;;;13.27;6.95;;;;;;;;;;5016468;28;20030;-63
2022/12/26 18:08:01;;;;;;;9.02;6.15;;;;;;;;;;5014585;28;20424;-63
2022/12/26 18:10:34;;;;;;;12.80;6.30;;;;;;;;;;5011071;28;20026;-63
2022/12/26 18:13:01;;;;;;;9.63;6.38;;;;;;;;;;5003919;28;20500;-62
2022/12/26 18:15:29;;;;;;;8.90;6.22;;;;;;;;;;5005258;28;20030;-66
2022/12/26 18:17:55;;;;;;;13.63;7.22;;;;;;;;;;5015353;28;20113;-62
2022/12/26 18:20:26;;;;;;;9.95;7.10;;;;;;;;;;5000237;28;20180;-62
2022/12/26 18:22:53;;;;;;;9.52;6.20;;;;;;;;;;4995612;28;20413;-63
2022/12/26 18:25:21;;;;;;;9.30;6.53;;;;;;;;;;4978714;28;20061;-63
2022/12/26 18:27:48;;;;;;;10.07;6.65;;;;;;;;;;4995978;28;20556;-62
2022/12/26 18:30:17;;;;;;;8.75;6.20;;;;;;;;;;4995925;28;20041;-67
2022/12/26 18:32:44;;;;;;;8.80;6.50;;;;;;;;;;4995999;28;20027;-62
2022/12/26 18:35:11;;;;;;;8.90;6.28;;;;;;;;;;4996181;28;20440;-62
2022/12/26 18:37:37;;;;;;;7.95;6.20;;;;;;;;;;4996224;28;20465;-63
2022/12/26 18:40:04;;;;;;;10.30;6.43;;;;;;;;;;4995944;28;20057;-62
2022/12/26 18:42:30;;;;;;;9.88;6.57;;;;;;;;;;4995899;28;20065;-63
2022/12/26 18:44:55;;;;;;;12.25;6.80;;;;;;;;;;4978374;28;20022;-66
2022/12/26 18:47:21;;;;;;;9.10;5.88;;;;;;;;;;4995611;28;20057;-62
2022/12/26 18:49:48;;;;;;;8.85;6.05;;;;;;;;;;4995739;28;20057;-62
2022/12/26 18:52:15;;;;;;;7.00;5.70;;;;;;;;;;4995878;28;20110;-61
2022/12/26 18:54:40;;;;;;;9.52;6.30;;;;;;;;;;4995756;28;20474;-60
2022/12/26 18:57:13;;;;;;;7.20;5.93;;;;;;;;;;4995529;28;20037;-62
2022/12/26 18:59:39;;;;;;;9.32;6.70;;;;;;;;;;4995115;28;20612;-67
2022/12/26 19:02:09;;;;;;;7.78;5.85;;;;;;;;;;4995534;28;20030;-63
2022/12/26 19:04:35;;;;;;;8.20;5.43;;;;;;;;;;5007358;28;20026;-63
2022/12/26 19:07:01;;;;;;;8.25;5.65;;;;;;;;;;5015090;28;20037;-63
2022/12/26 19:09:27;;;;;;;11.82;5.80;;;;;;;;;;5015064;28;20069;-64
2022/12/26 19:11:52;;;;;;;7.50;5.88;;;;;;;;;;5013848;28;20385;-63
2022/12/26 19:14:20;;;;;;;14.07;7.70;;;;;;;;;;5014227;28;20030;-64
2022/12/26 19:16:46;;;;;;;8.60;5.32;;;;;;;;;;5015069;28;20033;-62
2022/12/26 19:19:12;;;;;;;8.95;5.80;;;;;;;;;;5013432;28;20480;-63
2022/12/26 19:21:37;;;;;;;12.63;5.90;;;;;;;;;;5012873;28;20045;-64
2022/12/26 19:24:03;;;;;;;8.45;5.75;;;;;;;;;;5013230;28;20026;-62
2022/12/26 19:26:29;;;;;;;9.15;5.88;;;;;;;;;;5012943;28;20579;-62
2022/12/26 19:28:55;;;;;;;7.93;5.60;;;;;;;;;;5013292;28;20061;-62
2022/12/26 19:31:22;;;;;;;8.07;5.70;;;;;;;;;;5011359;28;20086;-63
2022/12/26 19:33:48;;;;;;;8.70;6.28;;;;;;;;;;5011503;28;20572;-62
2022/12/26 19:36:14;;;;;;;8.10;5.32;;;;;;;;;;5011186;28;20042;-63
2022/12/26 19:38:40;;;;;;;9.43;6.32;;;;;;;;;;5011621;28;20379;-63
2022/12/26 19:41:09;;;;;;;9.35;6.50;;;;;;;;;;5012831;28;20029;-62
2022/12/26 19:43:35;;;;;;;8.93;5.47;;;;;;;;;;5011195;28;20038;-62
2022/12/26 19:46:04;;;;;;;8.05;5.40;;;;;;;;;;5012606;28;20033;-65
2022/12/26 19:48:33;;;;;;;6.72;5.10;;;;;;;;;;5012727;28;20018;-64
2022/12/26 19:51:04;;;;;;;6.80;5.38;;;;;;;;;;5012685;28;20054;-66
2022/12/26 19:53:31;;;;;;;7.65;5.60;;;;;;;;;;5012545;28;20109;-67
2022/12/26 19:55:57;;;;;;;7.00;5.07;;;;;;;;;;5012599;28;20449;-62
2022/12/26 19:58:24;;;;;;;7.13;4.88;;;;;;;;;;5012435;28;20264;-63
2022/12/26 20:00:50;;;;;;;8.48;5.25;;;;;;;;;;5012221;28;20065;-66
2022/12/26 20:03:16;;;;;;;9.23;5.38;;;;;;;;;;5012362;28;20057;-63
2022/12/26 20:05:42;;;;;;;7.70;5.18;;;;;;;;;;5012208;28;20022;-62
2022/12/26 20:08:09;;;;;;;7.68;5.43;;;;;;;;;;5012412;28;20034;-66
2022/12/26 20:10:35;;;;;;;11.50;5.32;;;;;;;;;;5011324;28;20040;-65
2022/12/26 20:13:01;;;;;;;6.90;5.22;;;;;;;;;;5012312;28;20025;-62
2022/12/26 20:15:28;;;;;;;9.25;5.28;;;;;;;;;;5012135;28;20041;-63
2022/12/26 20:17:55;;;;;;;7.65;5.07;;;;;;;;;;5012035;28;20448;-67
2022/12/26 20:20:21;;;;;;;7.70;5.00;;;;;;;;;;5010646;28;20046;-62
2022/12/26 20:22:47;;;;;;;7.95;5.30;;;;;;;;;;5012068;28;20033;-63
2022/12/26 20:25:12;;;;;;;5.78;5.07;;;;;;;;;;5010941;28;20061;-66
2022/12/26 20:27:39;;;;;;;11.10;6.35;;;;;;;;;;5012036;28;20061;-65
2022/12/26 20:30:06;;;;;;;9.25;5.32;;;;;;;;;;5012173;28;20030;-63
2022/12/26 20:32:32;;;;;;;7.80;5.05;;;;;;;;;;5011695;28;20028;-67
2022/12/26 20:34:58;;;;;;;5.82;5.10;;;;;;;;;;5004305;28;20188;-66
2022/12/26 20:37:23;;;;;;;6.65;5.40;;;;;;;;;;5000800;28;20105;-66
2022/12/26 20:39:49;;;;;;;8.57;5.50;;;;;;;;;;4999789;28;20359;-66
2022/12/26 20:42:15;;;;;;;7.05;5.03;;;;;;;;;;5001652;28;20030;-63
2022/12/26 20:44:41;;;;;;;8.40;5.22;;;;;;;;;;4982984;28;20774;-62
2022/12/26 20:47:08;;;;;;;8.25;5.30;;;;;;;;;;4999895;28;20030;-61
2022/12/26 20:49:34;;;;;;;7.57;5.50;;;;;;;;;;5004389;28;20037;-63
2022/12/26 20:51:59;;;;;;;6.90;5.07;;;;;;;;;;5000051;28;20578;-65
2022/12/26 20:54:25;;;;;;;6.28;5.03;;;;;;;;;;5000311;28;20425;-65
2022/12/26 20:56:51;;;;;;;6.38;4.75;;;;;;;;;;5002124;28;20068;-62
2022/12/26 20:59:17;;;;;;;6.47;5.28;;;;;;;;;;5002951;28;20030;-63
2022/12/26 21:01:43;;;;;;;6.60;4.80;;;;;;;;;;4984148;28;20030;-62
2022/12/26 21:04:17;;;;;;;6.70;4.93;;;;;;;;;;5001123;28;20030;-64
2022/12/26 21:06:44;;;;;;;6.22;4.75;;;;;;;;;;5002767;28;20030;-62
2022/12/26 21:09:10;;;;;;;6.85;5.03;;;;;;;;;;5002609;28;20026;-62
2022/12/26 21:11:38;;;;;;;7.13;5.00;;;;;;;;;;5000707;28;20077;-65
2022/12/26 21:14:10;;;;;;;6.20;5.18;;;;;;;;;;5002863;28;20037;-63
2022/12/26 21:16:41;;;;;;;7.55;5.18;;;;;;;;;;5001312;28;20034;-67
2022/12/26 21:19:07;;;;;;;7.45;5.32;;;;;;;;;;5000916;28;20505;-67
2022/12/26 21:21:35;;;;;;;5.82;4.90;;;;;;;;;;4997592;28;20070;-62
2022/12/26 21:24:05;;;;;;;5.75;4.82;;;;;;;;;;4993209;28;20465;-63
2022/12/26 21:26:31;;;;;;;8.18;5.15;;;;;;;;;;4993170;28;20125;-63
2022/12/26 21:28:59;;;;;;;8.25;4.88;;;;;;;;;;4993002;28;20505;-63
2022/12/26 21:31:25;;;;;;;5.97;4.90;;;;;;;;;;4992943;28;20034;-63
2022/12/26 21:33:54;;;;;;;6.93;5.05;;;;;;;;;;4993297;28;20115;-63
2022/12/26 21:36:20;;;;;;;6.15;4.97;;;;;;;;;;4992822;28;20049;-62
2022/12/26 21:38:47;;;;;;;6.93;5.03;;;;;;;;;;4993003;28;20018;-63
2022/12/26 21:41:13;;;;;;;5.72;4.60;;;;;;;;;;4993011;28;20022;-63
2022/12/26 21:43:39;;;;;;;6.65;4.95;;;;;;;;;;4993212;28;20022;-63
2022/12/26 21:46:12;;;;;;;6.60;5.25;;;;;;;;;;4993045;28;20462;-63
2022/12/26 21:48:37;;;;;;;6.10;4.40;;;;;;;;;;4993167;28;20058;-63
2022/12/26 21:51:07;;;;;;;5.90;4.82;;;;;;;;;;4992844;28;20381;-63
2022/12/26 21:53:34;;;;;;;6.93;5.20;;;;;;;;;;4975491;28;20023;-65
2022/12/26 21:56:06;;;;;;;7.97;5.07;;;;;;;;;;4992816;28;20038;-63
2022/12/26 21:59:54;;;;;;;5.05;4.45;;;;;;;;;;4993029;28;20440;-63
2022/12/26 22:01:20;;;;;;;5.90;4.90;;;;;;;;;;4992650;28;20136;-63
2022/12/26 22:06:31;;;;;;;6.35;4.63;;;;;;;;;;4992775;28;20033;-65
2022/12/26 22:08:57;;;;;;;7.35;5.03;;;;;;;;;;4975482;28;20363;-64
2022/12/26 22:14:07;;;;;;;6.55;4.82;;;;;;;;;;4992726;28;20029;-64
2022/12/26 22:16:32;;;;;;;6.18;4.85;;;;;;;;;;4992924;28;20031;-64
2022/12/26 22:18:58;;;;;;;5.45;4.43;;;;;;;;;;4992567;28;20363;-63
2022/12/26 22:21:24;;;;;;;5.82;4.68;;;;;;;;;;4992166;28;20050;-64
2022/12/26 22:23:51;;;;;;;6.30;4.50;;;;;;;;;;4975337;28;20030;-64
2022/12/26 22:26:18;;;;;;;6.43;4.93;;;;;;;;;;4996435;28;20034;-63
2022/12/26 22:28:44;;;;;;;6.45;4.93;;;;;;;;;;5012176;28;20109;-63